Time;durP1;ratioP1;P1;durP2;ratioP2;P2;SDS_P1;SDS_P2;PMS_P1;PMS_P2;Temp;Humidity;BMP_temperature;BMP_pressure;BME280_temperature;BME280_humidity;BME280_pressure;Samples;Min_cycle;Max_cycle;Signal;HPM_P1;HPM_P2
2022/07/05 00:02:00;;;;;;;1.17;0.80;;;;;;;27.94;38.96;101950.81;5041169;28;20037;-62
2022/07/05 00:04:26;;;;;;;1.10;0.90;;;;;;;27.93;39.16;101950.00;5033339;28;20037;-61
2022/07/05 00:09:36;;;;;;;1.73;0.95;;;;;;;27.94;38.99;101942.78;5029214;28;20049;-61
2022/07/05 00:12:02;;;;;;;1.20;0.90;;;;;;;27.94;39.00;101945.47;5039177;28;20037;-60
2022/07/05 00:14:27;;;;;;;1.50;0.90;;;;;;;27.93;39.15;101952.66;5034480;28;20035;-61
2022/07/05 00:16:53;;;;;;;1.05;0.90;;;;;;;27.91;38.96;101946.50;5049126;28;20029;-60
2022/07/05 00:19:18;;;;;;;1.30;0.93;;;;;;;27.91;39.26;101949.16;5045177;28;20116;-61
2022/07/05 00:21:44;;;;;;;1.88;0.93;;;;;;;27.91;38.99;101949.16;5029331;28;20033;-61
2022/07/05 00:24:09;;;;;;;1.15;0.98;;;;;;;27.90;39.14;101947.41;5029130;28;20095;-61
2022/07/05 00:26:34;;;;;;;1.10;0.88;;;;;;;27.88;39.18;101948.41;5045076;28;20068;-62
2022/07/05 00:29:00;;;;;;;2.72;1.00;;;;;;;27.88;39.17;101943.03;5044086;28;20487;-61
2022/07/05 00:31:25;;;;;;;1.17;0.90;;;;;;;27.83;39.04;101936.09;5029020;28;20029;-61
2022/07/05 00:33:50;;;;;;;1.25;1.00;;;;;;;27.83;39.23;101943.25;5037083;28;20031;-61
2022/07/05 00:36:16;;;;;;;1.95;1.00;;;;;;;27.85;38.94;101938.72;5029066;28;20052;-61
2022/07/05 00:38:41;;;;;;;1.20;1.00;;;;;;;27.84;39.29;101943.19;5028020;28;20029;-61
2022/07/05 00:41:07;;;;;;;1.60;1.08;;;;;;;27.84;38.85;101939.63;5029314;28;20055;-61
2022/07/05 00:43:32;;;;;;;1.20;0.90;;;;;;;27.83;39.01;101945.94;5031318;28;20033;-61
2022/07/05 00:45:58;;;;;;;2.22;1.00;;;;;;;27.82;39.13;101953.09;5048308;28;20041;-61
2022/07/05 00:48:23;;;;;;;1.00;0.88;;;;;;;27.81;39.25;101951.34;5048679;28;20178;-61
2022/07/05 00:50:50;;;;;;;2.38;1.00;;;;;;;27.80;39.11;101951.44;5047114;28;20040;-64
2022/07/05 00:53:16;;;;;;;1.17;0.80;;;;;;;27.79;39.33;101945.19;5038081;28;20057;-61
2022/07/05 00:55:44;;;;;;;1.42;1.00;;;;;;;27.78;39.09;101950.59;5028606;28;20064;-61
2022/07/05 00:58:10;;;;;;;1.13;0.90;;;;;;;27.76;39.14;101947.09;5043908;28;20091;-61
2022/07/05 01:00:36;;;;;;;2.00;1.05;;;;;;;27.75;38.99;101953.44;5048370;28;20029;-61
2022/07/05 01:03:01;;;;;;;1.00;0.90;;;;;;;27.77;39.28;101944.38;5036896;28;20029;-61
2022/07/05 01:05:28;;;;;;;3.13;0.90;;;;;;;27.75;38.95;101940.03;5028589;28;20029;-61
2022/07/05 01:07:53;;;;;;;1.40;1.00;;;;;;;27.74;39.29;101944.50;5035037;28;20090;-61
2022/07/05 01:10:19;;;;;;;1.55;1.08;;;;;;;27.72;39.26;101946.38;5048358;28;20227;-61
2022/07/05 01:12:45;;;;;;;1.20;1.00;;;;;;;27.72;39.42;101943.69;5030481;28;20032;-62
2022/07/05 01:15:10;;;;;;;1.48;1.08;;;;;;;27.71;39.49;101946.44;5048536;28;20043;-61
2022/07/05 01:17:36;;;;;;;1.75;1.02;;;;;;;27.69;39.05;101945.66;5048306;28;20025;-61
2022/07/05 01:20:04;;;;;;;1.10;1.00;;;;;;;27.69;39.14;101943.81;5035310;28;20029;-60
2022/07/05 01:23:04;;;;;;;1.25;0.90;;;;;;;27.68;39.14;101949.25;5035952;28;20028;-60
2022/07/05 01:25:30;;;;;;;1.70;1.10;;;;;;;27.67;39.35;101953.72;5031887;28;20573;-61
2022/07/05 01:27:58;;;;;;;2.55;1.00;;;;;;;27.67;39.40;101950.19;5028576;28;20037;-61
2022/07/05 01:30:24;;;;;;;1.42;1.10;;;;;;;27.67;39.26;101950.19;5038205;28;20021;-61
2022/07/05 01:32:49;;;;;;;1.17;0.90;;;;;;;27.66;39.18;101948.44;5047904;28;20041;-61
2022/07/05 01:35:20;;;;;;;1.30;1.00;;;;;;;27.64;39.24;101943.13;5028857;28;20072;-61
2022/07/05 01:37:49;;;;;;;1.75;1.10;;;;;;;27.62;39.24;101947.69;5028533;28;20437;-61
2022/07/05 01:40:16;;;;;;;1.95;1.20;;;;;;;27.63;39.21;101949.41;5045875;28;20472;-61
2022/07/05 01:42:41;;;;;;;1.58;1.20;;;;;;;27.61;39.35;101948.63;5047681;28;20402;-61
2022/07/05 01:45:07;;;;;;;1.23;0.90;;;;;;;27.63;39.15;101948.56;5036225;28;20045;-61
2022/07/05 01:47:36;;;;;;;1.50;1.10;;;;;;;27.58;39.22;101945.19;5033051;28;20037;-61
2022/07/05 01:50:04;;;;;;;1.70;1.08;;;;;;;27.61;39.24;101945.06;5045922;28;20128;-61
2022/07/05 01:52:32;;;;;;;1.55;0.90;;;;;;;27.59;39.26;101945.13;5047668;28;20109;-61
2022/07/05 01:55:01;;;;;;;1.63;1.20;;;;;;;27.57;39.31;101949.66;5041582;28;20028;-61
2022/07/05 01:57:27;;;;;;;1.05;0.95;;;;;;;27.56;39.21;101941.72;5030006;28;20505;-61
2022/07/05 01:59:52;;;;;;;1.80;1.10;;;;;;;27.57;39.51;101938.09;5028238;28;20113;-61
2022/07/05 02:02:18;;;;;;;1.42;1.13;;;;;;;27.56;39.32;101939.03;5043111;28;20052;-61
2022/07/05 02:04:43;;;;;;;1.95;1.10;;;;;;;27.57;39.53;101943.47;5039077;28;21169;-61
2022/07/05 02:07:09;;;;;;;1.60;1.10;;;;;;;27.56;39.34;101936.34;5033579;28;20548;-61
2022/07/05 02:09:35;;;;;;;1.30;1.15;;;;;;;27.54;39.30;101940.88;5041237;28;20032;-61
2022/07/05 02:12:03;;;;;;;1.60;1.20;;;;;;;27.54;39.70;101941.75;5040540;28;20030;-61
2022/07/05 02:14:28;;;;;;;2.15;1.10;;;;;;;27.53;39.35;101942.69;5029246;28;20033;-61
2022/07/05 02:16:54;;;;;;;1.40;1.10;;;;;;;27.50;39.46;101942.81;5041867;28;20486;-61
2022/07/05 02:19:19;;;;;;;1.50;1.13;;;;;;;27.51;39.67;101944.56;5041162;28;20051;-62
2022/07/05 02:21:45;;;;;;;1.38;1.10;;;;;;;27.49;39.30;101946.41;5048321;28;20087;-61
2022/07/05 02:24:10;;;;;;;1.23;1.10;;;;;;;27.50;39.44;101941.94;5044988;28;20044;-61
2022/07/05 02:26:36;;;;;;;1.80;1.30;;;;;;;27.47;39.43;101942.91;5044990;28;20029;-61
2022/07/05 02:29:02;;;;;;;1.85;1.27;;;;;;;27.48;39.60;101941.09;5042876;28;20513;-61
2022/07/05 02:31:28;;;;;;;1.30;1.10;;;;;;;27.48;39.53;101935.75;5046624;28;20041;-61
2022/07/05 02:33:53;;;;;;;1.50;1.13;;;;;;;27.44;39.43;101938.56;5036563;28;20034;-61
2022/07/05 02:36:18;;;;;;;1.30;1.10;;;;;;;27.44;39.46;101935.88;5047361;28;20029;-61
2022/07/05 02:38:44;;;;;;;1.10;1.00;;;;;;;27.44;39.67;101940.38;5050869;28;20017;-61
2022/07/05 02:41:11;;;;;;;1.50;1.10;;;;;;;27.45;39.36;101934.94;5033825;28;20391;-61
2022/07/05 02:43:37;;;;;;;1.92;1.13;;;;;;;27.44;39.46;101937.69;5036697;28;20086;-62
2022/07/05 02:46:03;;;;;;;1.30;1.00;;;;;;;27.42;39.64;101928.84;5044723;28;20056;-60
2022/07/05 02:48:29;;;;;;;1.92;1.20;;;;;;;27.41;39.60;101932.44;5044044;28;20025;-61
2022/07/05 02:50:54;;;;;;;1.67;1.15;;;;;;;27.41;39.39;101937.78;5038323;28;20419;-61
2022/07/05 02:53:20;;;;;;;1.10;1.00;;;;;;;27.41;39.59;101936.00;5039811;28;20033;-61
2022/07/05 02:55:45;;;;;;;1.40;1.15;;;;;;;27.40;39.61;101930.69;5038876;28;20065;-61
2022/07/05 02:58:10;;;;;;;1.75;1.10;;;;;;;27.38;39.53;101932.56;5030471;28;20026;-60
2022/07/05 03:00:36;;;;;;;1.80;1.23;;;;;;;27.37;39.56;101937.06;5037177;28;20031;-61
2022/07/05 03:03:01;;;;;;;1.75;1.20;;;;;;;27.37;39.55;101933.50;5037778;28;20111;-62
2022/07/05 03:05:27;;;;;;;1.75;1.20;;;;;;;27.37;39.70;101934.38;5033832;28;20071;-61
2022/07/05 03:07:52;;;;;;;1.55;1.02;;;;;;;27.36;39.60;101945.16;5032329;28;20029;-62
2022/07/05 03:10:18;;;;;;;1.80;1.30;;;;;;;27.34;39.53;101947.88;5040040;28;20109;-61
2022/07/05 03:12:43;;;;;;;1.83;1.20;;;;;;;27.34;39.73;101949.69;5030248;28;20181;-61
2022/07/05 03:15:09;;;;;;;1.35;1.10;;;;;;;27.32;39.61;101943.53;5035689;28;20579;-61
2022/07/05 03:17:34;;;;;;;1.80;1.30;;;;;;;27.29;39.47;101949.00;5031334;28;20427;-60
2022/07/05 03:20:00;;;;;;;1.55;1.13;;;;;;;27.27;39.54;101953.53;5043506;28;20037;-61
2022/07/05 03:22:25;;;;;;;1.70;1.20;;;;;;;27.28;39.60;101945.44;5047946;28;20036;-61
2022/07/05 03:24:51;;;;;;;1.40;1.10;;;;;;;27.27;39.64;101951.72;5038524;28;20033;-61
2022/07/05 03:27:16;;;;;;;1.30;1.20;;;;;;;27.28;39.63;101952.59;5041461;28;20120;-61
2022/07/05 03:29:42;;;;;;;1.30;1.10;;;;;;;27.31;39.54;101960.53;5042295;28;20104;-61
2022/07/05 03:32:07;;;;;;;2.75;1.20;;;;;;;27.28;39.41;101966.00;5043209;28;20025;-60
2022/07/05 03:34:32;;;;;;;1.98;1.17;;;;;;;27.29;39.46;101960.56;5043547;28;20087;-60
2022/07/05 03:36:58;;;;;;;1.40;1.10;;;;;;;27.31;39.20;101950.69;5043445;28;20028;-60
2022/07/05 03:39:23;;;;;;;1.95;1.20;;;;;;;27.29;39.41;101962.38;5045663;28;20025;-61
2022/07/05 03:41:48;;;;;;;1.65;1.25;;;;;;;27.31;39.31;101949.81;5030053;28;20043;-61
2022/07/05 03:44:14;;;;;;;1.85;1.23;;;;;;;27.29;39.21;101970.41;5032011;28;20091;-61
2022/07/05 03:46:39;;;;;;;1.60;1.30;;;;;;;27.28;39.22;101972.22;5046021;28;20025;-62
2022/07/05 03:49:04;;;;;;;1.40;1.17;;;;;;;27.29;39.14;101967.75;5038300;28;20068;-61
2022/07/05 03:51:31;;;;;;;2.13;1.20;;;;;;;27.26;39.20;101966.06;5039992;28;20327;-61
2022/07/05 03:53:56;;;;;;;1.92;1.20;;;;;;;27.25;39.35;101967.00;5046406;28;20107;-60
2022/07/05 03:56:22;;;;;;;1.73;1.30;;;;;;;27.25;39.17;101969.69;5038315;28;20581;-61
2022/07/05 03:58:49;;;;;;;1.70;1.30;;;;;;;27.24;39.37;101970.59;5038580;28;20042;-61
2022/07/05 04:01:15;;;;;;;1.83;1.30;;;;;;;27.23;39.24;101968.84;5027749;28;20456;-61
2022/07/05 04:03:40;;;;;;;1.33;1.10;;;;;;;27.24;39.34;101970.59;5034884;28;20055;-61
2022/07/05 04:06:06;;;;;;;1.42;1.27;;;;;;;27.25;39.13;101975.03;5032520;28;20041;-61
2022/07/05 04:08:32;;;;;;;1.80;1.13;;;;;;;27.24;39.35;101969.72;5035541;28;20400;-61
2022/07/05 04:10:57;;;;;;;1.40;1.20;;;;;;;27.24;39.30;101975.06;5034880;28;20036;-60
2022/07/05 04:13:22;;;;;;;1.33;1.23;;;;;;;27.21;39.28;101973.38;5037277;28;20045;-61
2022/07/05 04:15:48;;;;;;;2.00;1.17;;;;;;;27.21;39.31;101980.53;5028975;28;20025;-61
2022/07/05 04:18:14;;;;;;;1.35;1.10;;;;;;;27.20;39.39;101982.34;5037352;28;20032;-61
2022/07/05 04:20:39;;;;;;;2.35;1.20;;;;;;;27.22;39.07;101979.59;5038900;28;20156;-61
2022/07/05 04:23:04;;;;;;;1.63;1.10;;;;;;;27.17;39.59;101987.81;5047447;28;20029;-61
2022/07/05 04:25:30;;;;;;;1.70;1.30;;;;;;;27.18;39.18;101986.91;5039864;28;20126;-61
2022/07/05 04:27:55;;;;;;;1.92;1.13;;;;;;;27.19;39.23;101985.09;5040599;28;20040;-61
2022/07/05 04:30:23;;;;;;;1.40;1.10;;;;;;;27.20;39.42;101987.69;5048504;28;20036;-61
2022/07/05 04:32:49;;;;;;;1.60;1.20;;;;;;;27.21;39.20;101978.72;5038478;28;20755;-61
2022/07/05 04:35:15;;;;;;;1.85;1.27;;;;;;;27.21;39.08;101986.75;5037514;28;20033;-61
2022/07/05 04:37:41;;;;;;;1.40;1.13;;;;;;;27.19;39.27;101988.66;5028611;28;20558;-61
2022/07/05 04:40:09;;;;;;;1.60;1.20;;;;;;;27.19;39.11;101985.97;5033849;28;20033;-61
2022/07/05 04:42:35;;;;;;;1.88;1.30;;;;;;;27.20;39.49;101985.00;5035837;28;20021;-61
2022/07/05 04:45:01;;;;;;;1.48;1.15;;;;;;;27.23;38.99;101984.91;5028634;28;20077;-61
2022/07/05 04:47:26;;;;;;;1.65;1.20;;;;;;;27.23;39.17;101981.34;5032050;28;20729;-61
2022/07/05 04:49:53;;;;;;;1.55;1.20;;;;;;;27.21;39.17;101984.09;5041431;28;20484;-61
2022/07/05 04:52:18;;;;;;;2.05;1.20;;;;;;;27.24;39.08;101985.78;5036176;28;20068;-61
2022/07/05 04:54:44;;;;;;;1.98;1.20;;;;;;;27.22;39.18;101993.88;5029271;28;20034;-61
2022/07/05 04:57:09;;;;;;;1.40;1.20;;;;;;;27.23;39.18;101990.28;5043176;28;20034;-61
2022/07/05 04:59:35;;;;;;;2.22;1.20;;;;;;;27.22;39.09;101983.16;5046682;28;20025;-61
2022/07/05 05:02:00;;;;;;;1.52;1.17;;;;;;;27.22;39.17;101993.00;5046225;28;20032;-61
2022/07/05 05:04:26;;;;;;;1.83;1.05;;;;;;;27.24;39.22;101985.78;5028330;28;20029;-61
2022/07/05 05:06:51;;;;;;;1.75;1.20;;;;;;;27.24;39.17;101988.47;5027444;28;20148;-62
2022/07/05 05:09:16;;;;;;;3.42;1.13;;;;;;;27.23;38.94;101981.34;5028430;28;20041;-61
2022/07/05 05:11:42;;;;;;;1.45;1.15;;;;;;;27.25;39.30;101987.53;5028149;28;20052;-62
2022/07/05 05:14:07;;;;;;;1.70;1.23;;;;;;;27.24;39.33;101985.78;5034459;28;20102;-61
2022/07/05 05:16:32;;;;;;;1.63;1.10;;;;;;;27.24;39.02;101989.34;5025538;28;20033;-60
2022/07/05 05:18:58;;;;;;;1.52;1.10;;;;;;;27.21;39.38;101996.59;5032084;28;20539;-61
2022/07/05 05:21:23;;;;;;;1.30;1.10;;;;;;;27.25;39.11;101998.25;5046389;28;20044;-61
2022/07/05 05:23:48;;;;;;;1.20;1.05;;;;;;;27.24;39.49;102000.06;5039410;28;20039;-61
2022/07/05 05:26:14;;;;;;;1.92;1.20;;;;;;;27.23;39.30;102006.34;5037602;28;20041;-61
2022/07/05 05:28:40;;;;;;;1.73;1.17;;;;;;;27.24;39.40;101993.81;5048339;28;20075;-61
2022/07/05 05:31:06;;;;;;;1.60;1.15;;;;;;;27.26;39.16;101997.31;5048355;28;20033;-61
2022/07/05 05:33:31;;;;;;;1.52;1.17;;;;;;;27.24;39.38;102001.84;5040136;28;20119;-61
2022/07/05 05:35:56;;;;;;;1.80;1.25;;;;;;;27.22;39.28;102004.59;5048440;28;20115;-61
2022/07/05 05:38:22;;;;;;;1.20;1.08;;;;;;;27.24;39.40;102004.53;5037601;28;20576;-62
2022/07/05 05:40:47;;;;;;;1.30;1.00;;;;;;;27.29;39.27;102002.53;5030788;28;20079;-61
2022/07/05 05:43:13;;;;;;;1.20;1.08;;;;;;;27.27;39.22;102005.28;5034312;28;20037;-61
2022/07/05 05:45:38;;;;;;;1.90;1.23;;;;;;;27.28;39.23;102003.47;5028505;28;20416;-61
2022/07/05 05:48:04;;;;;;;1.70;1.20;;;;;;;27.29;39.51;101997.19;5044719;28;20036;-61
2022/07/05 05:50:32;;;;;;;1.60;1.10;;;;;;;27.30;39.07;101999.81;5047189;28;20037;-60
2022/07/05 05:52:58;;;;;;;1.10;1.00;;;;;;;27.33;39.36;102001.47;5044150;28;20028;-60
2022/07/05 05:55:26;;;;;;;1.38;1.20;;;;;;;27.36;39.22;102010.28;5050327;28;20858;-61
2022/07/05 05:57:51;;;;;;;1.50;1.20;;;;;;;27.39;39.18;102009.28;5051854;28;20550;-61
2022/07/05 06:00:18;;;;;;;1.65;1.20;;;;;;;27.40;39.11;102006.56;5033487;28;20017;-61
2022/07/05 06:02:44;;;;;;;1.25;1.10;;;;;;;27.46;39.23;102010.78;5049895;28;20021;-60
2022/07/05 06:05:10;;;;;;;1.40;1.13;;;;;;;28.42;37.46;102013.13;5031624;28;20033;-61
2022/07/05 06:07:53;;;;;;;2.42;1.80;;;;;;;31.98;31.11;102017.59;5039837;28;20040;-61
2022/07/05 06:10:20;;;;;;;2.13;1.90;;;;;;;32.18;30.57;102013.75;5034284;28;20025;-61
2022/07/05 06:12:46;;;;;;;2.45;1.90;;;;;;;30.88;32.52;102020.13;5036399;28;20049;-61
2022/07/05 06:15:12;;;;;;;1.77;1.50;;;;;;;29.80;34.21;102019.38;5038665;28;20035;-61
2022/07/05 06:17:38;;;;;;;1.30;1.10;;;;;;;28.98;36.33;102020.53;5049942;28;20033;-61
2022/07/05 06:20:13;;;;;;;1.33;1.00;;;;;;;28.47;36.85;102023.69;5050657;28;20021;-62
2022/07/05 06:22:39;;;;;;;1.40;1.13;;;;;;;28.24;37.74;102019.28;5037530;28;20047;-60
2022/07/05 06:25:05;;;;;;;2.13;1.20;;;;;;;28.10;37.99;102025.22;5051073;28;20025;-61
2022/07/05 06:27:30;;;;;;;2.13;1.20;;;;;;;28.01;37.92;102030.94;5050572;28;20395;-62
2022/07/05 06:29:56;;;;;;;1.50;1.10;;;;;;;27.97;38.07;102026.66;5033844;28;20044;-61
2022/07/05 06:32:22;;;;;;;1.70;1.23;;;;;;;27.92;38.35;102023.28;5043817;28;20037;-61
2022/07/05 06:34:47;;;;;;;1.60;1.10;;;;;;;27.92;38.62;102025.97;5038066;28;20041;-61
2022/07/05 06:37:13;;;;;;;1.38;1.20;;;;;;;27.91;38.52;102028.69;5042096;28;20025;-61
2022/07/05 06:39:38;;;;;;;1.33;1.10;;;;;;;27.90;38.45;102033.19;5031898;28;20028;-61
2022/07/05 06:42:03;;;;;;;1.88;1.25;;;;;;;27.90;38.54;102032.31;5034367;28;20029;-61
2022/07/05 06:44:29;;;;;;;1.35;1.20;;;;;;;27.91;38.81;102029.56;5050621;28;20059;-61
2022/07/05 06:46:54;;;;;;;1.20;1.10;;;;;;;27.92;38.79;102027.78;5050730;28;20035;-61
2022/07/05 06:49:19;;;;;;;1.27;1.17;;;;;;;27.93;38.79;102024.16;5040216;28;20039;-61
2022/07/05 06:51:45;;;;;;;1.27;1.00;;;;;;;27.93;39.25;102035.75;5041259;28;20352;-61
2022/07/05 06:54:10;;;;;;;1.25;1.10;;;;;;;27.93;38.98;102026.84;5044799;28;20838;-61
2022/07/05 06:56:36;;;;;;;1.30;1.10;;;;;;;27.94;38.06;102036.59;5030794;28;20029;-60
2022/07/05 06:59:01;;;;;;;2.28;1.25;;;;;;;27.96;38.98;102029.38;5042025;28;20118;-61
2022/07/05 07:01:26;;;;;;;1.35;1.10;;;;;;;28.05;38.94;102039.75;5039042;28;20029;-66
2022/07/05 07:03:52;;;;;;;2.35;1.10;;;;;;;28.09;39.08;102044.03;5045780;28;20048;-61
2022/07/05 07:06:18;;;;;;;1.67;1.20;;;;;;;28.05;39.10;102051.34;5041736;28;20737;-62
2022/07/05 07:11:27;;;;;;;2.47;1.20;;;;;;;28.10;39.08;102051.16;5049813;28;20039;-61
2022/07/05 07:13:53;;;;;;;1.40;1.20;;;;;;;28.12;38.98;102046.56;5038752;28;20526;-60
2022/07/05 07:16:18;;;;;;;1.90;1.25;;;;;;;28.15;38.98;102052.75;5035780;28;20159;-60
2022/07/05 07:18:43;;;;;;;2.35;1.15;;;;;;;28.18;39.26;102049.03;5036908;28;20041;-62
2022/07/05 07:21:09;;;;;;;2.13;1.30;;;;;;;28.21;39.24;102046.25;5037969;28;20086;-62
2022/07/05 07:23:35;;;;;;;1.42;1.15;;;;;;;28.21;39.23;102048.94;5049516;28;20100;-61
2022/07/05 07:26:00;;;;;;;3.15;1.30;;;;;;;28.23;39.31;102053.31;5036677;28;20547;-60
2022/07/05 07:28:26;;;;;;;2.40;1.30;;;;;;;28.26;39.39;102049.59;5012255;28;20145;-63
2022/07/05 07:30:51;;;;;;;2.55;1.25;;;;;;;28.29;39.83;102048.63;5046685;28;20035;-62
2022/07/05 07:33:16;;;;;;;2.58;1.30;;;;;;;28.29;40.00;102057.53;5031156;28;20033;-60
2022/07/05 07:35:42;;;;;;;4.07;1.40;;;;;;;28.32;40.69;102046.66;5042013;28;20057;-63
2022/07/05 07:38:07;;;;;;;4.43;1.40;;;;;;;28.40;40.98;102060.63;5033016;28;20056;-63
2022/07/05 07:40:33;;;;;;;4.85;1.40;;;;;;;28.45;41.21;102060.44;5034960;28;20730;-63
2022/07/05 07:42:58;;;;;;;3.10;1.30;;;;;;;28.45;41.49;102055.06;5041983;28;20207;-61
2022/07/05 07:45:23;;;;;;;7.43;1.40;;;;;;;28.46;41.14;102055.00;5040046;28;20103;-59
2022/07/05 07:47:49;;;;;;;2.85;1.30;;;;;;;28.48;41.38;102063.00;5028563;28;20113;-60
2022/07/05 07:50:14;;;;;;;4.57;1.30;;;;;;;28.49;41.43;102060.22;5047075;28;20025;-61
2022/07/05 07:52:40;;;;;;;5.10;1.48;;;;;;;28.48;42.13;102057.63;5038266;28;20037;-61
2022/07/05 07:55:06;;;;;;;5.60;1.40;;;;;;;28.58;41.22;102059.84;5036009;28;20112;-62
2022/07/05 07:57:31;;;;;;;3.75;1.30;;;;;;;28.56;41.25;102056.34;5029307;28;20048;-61
2022/07/05 07:59:57;;;;;;;3.63;1.40;;;;;;;28.59;41.37;102063.41;5039218;28;20021;-61
2022/07/05 08:02:22;;;;;;;4.88;1.42;;;;;;;28.60;40.59;102063.34;5039909;28;20033;-61
2022/07/05 08:04:49;;;;;;;2.83;1.30;;;;;;;28.63;40.37;102059.66;5035717;28;20112;-61
2022/07/05 08:07:16;;;;;;;4.10;1.40;;;;;;;28.64;40.04;102053.34;5040430;28;20399;-61
2022/07/05 08:09:41;;;;;;;6.15;1.25;;;;;;;28.69;40.43;102059.38;5045466;28;20406;-61
2022/07/05 08:12:07;;;;;;;4.55;1.10;;;;;;;28.71;40.05;102059.31;5026876;28;20037;-60
2022/07/05 08:14:32;;;;;;;1.70;1.10;;;;;;;28.67;39.24;102072.84;5033356;28;20021;-61
2022/07/05 08:16:58;;;;;;;5.20;1.33;;;;;;;28.70;38.27;102069.19;5041646;28;20041;-60
2022/07/05 08:22:08;;;;;;;6.45;1.50;;;;;;;28.75;36.68;102066.31;5039058;28;20079;-62
2022/07/05 08:24:34;;;;;;;5.30;1.40;;;;;;;28.79;36.77;102066.13;5035855;28;20056;-61
2022/07/05 08:26:59;;;;;;;5.90;1.40;;;;;;;28.76;36.04;102060.91;5042225;28;20740;-61
2022/07/05 08:29:25;;;;;;;4.10;1.30;;;;;;;28.74;35.70;102068.13;5033502;28;20124;-61
2022/07/05 08:31:52;;;;;;;3.50;1.30;;;;;;;28.72;34.91;102066.44;5033036;28;20037;-61
2022/07/05 08:34:18;;;;;;;5.35;1.58;;;;;;;28.66;33.67;102062.22;5035972;28;20030;-62
2022/07/05 08:36:44;;;;;;;3.00;1.40;;;;;;;28.67;33.64;102060.41;5033231;28;20044;-61
2022/07/05 08:39:09;;;;;;;4.45;1.30;;;;;;;28.65;33.63;102064.03;5026512;28;20480;-61
2022/07/05 08:41:39;;;;;;;4.15;1.40;;;;;;;28.69;33.57;102055.81;5030886;28;20475;-60
2022/07/05 08:44:06;;;;;;;3.35;1.40;;;;;;;28.66;33.82;102059.53;5040261;28;20512;-64
2022/07/05 08:46:32;;;;;;;6.53;1.40;;;;;;;28.67;33.93;102064.81;5032603;28;20045;-66
2022/07/05 08:49:04;;;;;;;3.58;1.20;;;;;;;28.71;34.04;102062.00;5036447;28;20384;-67
2022/07/05 08:51:33;;;;;;;7.10;1.40;;;;;;;28.64;34.52;102059.59;5037346;28;20021;-64
2022/07/05 08:53:59;;;;;;;5.00;1.17;;;;;;;28.73;33.83;102060.13;5027928;28;20452;-62
2022/07/05 08:56:25;;;;;;;5.22;1.40;;;;;;;28.76;34.32;102068.94;5035061;28;20112;-63
2022/07/05 08:58:50;;;;;;;7.75;1.42;;;;;;;28.83;34.57;102067.75;5033014;28;20108;-65
2022/07/05 09:01:16;;;;;;;9.93;1.45;;;;;;;28.84;34.66;102072.19;5026335;28;20022;-66
2022/07/05 09:03:52;;;;;;;10.13;1.52;;;;;;;28.93;34.69;102068.19;5037691;28;21664;-60
2022/07/05 09:06:22;;;;;;;4.45;1.30;;;;;;;28.91;34.09;102079.00;5039158;28;20124;-61
2022/07/05 09:08:51;;;;;;;5.05;1.40;;;;;;;28.84;33.74;102072.19;5028211;28;20030;-62
2022/07/05 09:11:23;;;;;;;7.53;1.30;;;;;;;28.78;32.45;102061.72;5044805;28;20037;-62
2022/07/05 09:13:49;;;;;;;6.00;1.25;;;;;;;28.80;32.32;102067.00;5045629;28;20060;-62
2022/07/05 09:16:16;;;;;;;3.45;1.33;;;;;;;28.72;33.22;102064.63;5025380;28;20061;-70
2022/07/05 09:18:54;;;;;;;9.95;1.40;;;;;;;28.88;33.14;102081.84;5028649;28;20037;-64
2022/07/05 09:21:21;;;;;;;5.60;1.25;;;;;;;28.93;31.84;102079.81;5025829;28;20029;-65
2022/07/05 09:24:04;;;;;;;25.92;1.85;;;;;;;28.95;32.57;102074.38;5037447;28;20044;-63
2022/07/05 09:26:33;;;;;;;13.82;1.60;;;;;;;29.02;32.57;102082.09;5018769;28;20037;-65
2022/07/05 09:28:59;;;;;;;15.65;1.75;;;;;;;28.99;32.72;102084.03;5032368;28;20052;-58
2022/07/05 09:31:39;;;;;;;10.80;1.60;;;;;;;28.98;32.80;102087.66;5037311;28;20033;-62
2022/07/05 09:34:14;;;;;;;6.40;1.40;;;;;;;28.98;32.25;102087.66;5033397;28;20036;-60
2022/07/05 09:36:57;;;;;;;6.22;1.33;;;;;;;28.92;32.44;102082.56;5025941;28;20540;-65
2022/07/05 09:39:29;;;;;;;12.88;1.50;;;;;;;28.98;31.77;102091.22;5030013;28;20026;-61
2022/07/05 09:42:26;;;;;;;30.50;2.45;;;;;;;29.05;32.08;102089.13;5028795;28;20025;-60
2022/07/05 09:44:55;;;;;;;5.57;1.30;;;;;;;29.10;31.47;102086.22;5043222;28;20915;-62
2022/07/05 09:47:22;;;;;;;7.30;1.60;;;;;;;29.06;32.11;102085.50;5045726;28;20407;-65
2022/07/05 09:49:49;;;;;;;5.28;1.40;;;;;;;29.09;32.10;102092.56;5037675;28;20036;-66
2022/07/05 09:52:38;;;;;;;5.63;1.40;;;;;;;29.14;31.91;102094.09;5035587;28;20025;-66
2022/07/05 09:55:06;;;;;;;10.10;1.50;;;;;;;29.23;32.11;102087.44;5030719;28;20036;-65
2022/07/05 09:57:36;;;;;;;5.80;1.30;;;;;;;29.23;31.98;102095.50;5034398;28;20651;-65
2022/07/05 10:00:16;;;;;;;7.55;1.50;;;;;;;29.24;31.62;102102.59;5041079;28;20100;-65
2022/07/05 10:02:44;;;;;;;5.18;1.30;;;;;;;29.23;31.81;102093.69;5040097;28;20028;-67
2022/07/05 10:05:15;;;;;;;5.93;1.10;;;;;;;29.20;32.13;102101.91;5027622;28;20053;-67
2022/07/05 10:07:46;;;;;;;4.70;1.30;;;;;;;29.21;32.50;102098.28;5029664;28;20033;-67
2022/07/05 10:10:14;;;;;;;5.13;1.38;;;;;;;29.19;32.35;102100.13;5028272;28;20032;-67
2022/07/05 10:12:41;;;;;;;3.13;1.20;;;;;;;29.26;32.57;102104.31;5033280;28;20116;-63
2022/07/05 10:15:09;;;;;;;8.70;1.50;;;;;;;29.29;32.75;102105.97;5034790;28;20361;-67
2022/07/05 10:17:40;;;;;;;3.70;1.27;;;;;;;29.20;32.37;102106.38;5045022;28;20025;-66
2022/07/05 10:20:23;;;;;;;7.40;1.42;;;;;;;29.28;32.34;102098.84;5042367;28;20068;-66
2022/07/05 10:22:49;;;;;;;3.72;1.40;;;;;;;29.27;32.64;102099.81;5045507;28;20505;-66
2022/07/05 10:25:14;;;;;;;5.55;1.30;;;;;;;29.29;32.99;102105.97;5030520;28;20034;-67
2022/07/05 10:27:40;;;;;;;8.45;1.50;;;;;;;29.37;32.74;102096.66;5033090;28;20029;-63
2022/07/05 10:30:07;;;;;;;6.00;1.30;;;;;;;29.26;32.64;102107.00;5040280;28;20040;-63
2022/07/05 10:32:35;;;;;;;3.55;1.40;;;;;;;29.27;32.93;102108.75;5032105;28;20119;-62
2022/07/05 10:35:02;;;;;;;3.58;1.40;;;;;;;29.19;33.34;102110.00;5026649;28;20029;-62
2022/07/05 10:37:30;;;;;;;3.40;1.60;;;;;;;29.17;33.34;102114.56;5040368;28;20036;-62
2022/07/05 10:40:00;;;;;;;4.25;1.35;;;;;;;29.18;33.93;102108.25;5038262;28;20033;-63
2022/07/05 10:42:31;;;;;;;5.72;1.30;;;;;;;29.29;33.41;102093.41;5028920;28;20037;-62
2022/07/05 10:44:57;;;;;;;4.30;1.25;;;;;;;29.38;33.16;102102.91;5030685;28;20176;-61
2022/07/05 10:47:22;;;;;;;5.88;1.58;;;;;;;29.35;33.47;102103.03;5038620;28;20166;-61
2022/07/05 10:50:08;;;;;;;5.25;1.67;;;;;;;29.34;33.95;102110.22;5036023;28;20030;-63
2022/07/05 10:52:33;;;;;;;14.45;1.60;;;;;;;29.37;33.99;102107.41;5028320;28;20042;-62
2022/07/05 10:55:22;;;;;;;4.65;1.52;;;;;;;29.32;33.95;102119.25;5028203;28;20055;-62
2022/07/05 10:58:16;;;;;;;7.75;1.73;;;;;;;29.26;34.39;102117.72;5020639;28;20049;-62
2022/07/05 11:00:46;;;;;;;4.45;1.20;;;;;;;29.23;34.70;102123.22;5028405;28;20371;-62
2022/07/05 11:03:36;;;;;;;8.90;1.52;;;;;;;29.22;34.29;102123.28;5027282;28;20025;-62
2022/07/05 11:06:02;;;;;;;4.03;1.20;;;;;;;29.17;34.55;102114.56;5028270;28;20049;-62
2022/07/05 11:08:30;;;;;;;5.45;1.40;;;;;;;29.19;34.31;102115.38;5028061;28;20039;-62
2022/07/05 11:11:14;;;;;;;5.32;1.42;;;;;;;29.17;34.80;102110.06;5036210;28;20037;-64
2022/07/05 11:13:46;;;;;;;10.20;1.60;;;;;;;29.18;34.31;102105.56;5048255;28;20432;-63
2022/07/05 11:16:31;;;;;;;5.78;1.50;;;;;;;29.13;34.40;102110.28;5032999;28;20104;-63
2022/07/05 11:19:09;;;;;;;6.50;1.55;;;;;;;29.15;34.45;102109.28;5028172;28;20029;-63
2022/07/05 11:21:36;;;;;;;4.97;1.40;;;;;;;29.16;34.68;102102.94;5027947;28;20091;-62
2022/07/05 11:24:27;;;;;;;5.65;1.42;;;;;;;29.18;34.48;102108.25;5028351;28;20025;-62
2022/07/05 11:26:57;;;;;;;5.50;1.48;;;;;;;29.22;34.73;102108.03;5026514;28;20043;-63
2022/07/05 11:29:45;;;;;;;4.22;1.40;;;;;;;29.23;34.81;102099.06;5028686;28;20025;-62
2022/07/05 11:32:13;;;;;;;3.78;1.42;;;;;;;29.24;34.50;102099.94;5037590;28;20100;-63
2022/07/05 11:34:40;;;;;;;5.53;1.35;;;;;;;29.22;34.42;102105.34;5027962;28;20029;-62